createdAt,value
2023-01-12T00:02:59.406Z,81.60
2023-01-12T00:06:04.628Z,81.46
2023-01-12T00:09:09.843Z,82.00
2023-01-12T00:12:13.564Z,81.29
2023-01-12T00:15:16.334Z,80.28
2023-01-12T00:18:18.938Z,80.43
2023-01-12T00:21:21.612Z,80.55
2023-01-12T00:24:27.991Z,80.95
2023-01-12T00:27:30.694Z,80.19
2023-01-12T00:30:33.339Z,80.04
2023-01-12T00:33:36.445Z,79.51
2023-01-12T00:36:39.849Z,79.19
2023-01-12T00:39:53.292Z,79.48
2023-01-12T00:43:20.993Z,77.88
2023-01-12T00:46:30.852Z,78.08
2023-01-12T00:49:33.588Z,77.96
2023-01-12T00:52:36.628Z,77.19
2023-01-12T00:55:40.698Z,76.64
2023-01-12T01:05:23.961Z,76.60
2023-01-12T01:08:26.602Z,76.43
2023-01-12T01:11:30.669Z,76.33
2023-01-12T01:14:33.326Z,76.87
2023-01-12T01:17:36.258Z,76.76
2023-01-12T01:20:38.937Z,76.18
2023-01-12T01:23:42.506Z,76.39
2023-01-12T01:26:46.545Z,77.01
2023-01-12T01:29:49.210Z,76.92
2023-01-12T01:32:51.845Z,77.12
2023-01-12T01:35:54.465Z,76.91
2023-01-12T01:38:57.249Z,76.62
2023-01-12T01:42:01.371Z,76.87
2023-01-12T01:45:07.089Z,76.06
2023-01-12T02:01:44.378Z,75.74
2023-01-12T02:04:47.453Z,75.83
2023-01-12T02:07:51.360Z,75.59
2023-01-12T02:10:56.855Z,75.18
2023-01-12T02:14:18.238Z,75.45
2023-01-12T02:17:38.195Z,74.93
2023-01-12T02:20:54.839Z,75.49
2023-01-12T02:24:29.973Z,74.90
2023-01-12T02:27:51.576Z,75.05
2023-01-12T02:31:36.756Z,74.84
2023-01-12T02:34:50.694Z,75.07
2023-01-12T02:38:01.832Z,75.33
2023-01-12T02:41:13.566Z,75.02
2023-01-12T02:44:24.568Z,75.21
2023-01-12T02:47:34.321Z,75.83
2023-01-12T02:50:45.215Z,75.45
2023-01-12T02:53:50.991Z,75.46
2023-01-12T02:56:56.571Z,75.86
2023-01-12T03:00:01.698Z,75.83
2023-01-12T03:03:05.956Z,75.64
2023-01-12T03:06:09.949Z,76.01
2023-01-12T03:09:13.937Z,75.79
2023-01-12T03:12:23.166Z,76.17
2023-01-12T03:15:28.893Z,75.82
2023-01-12T03:18:35.606Z,75.81
2023-01-12T03:21:41.399Z,75.70
2023-01-12T03:24:48.071Z,75.97
2023-01-12T03:27:56.669Z,75.25
2023-01-12T03:31:04.889Z,75.50
2023-01-12T03:34:10.087Z,76.00
2023-01-12T03:37:22.694Z,75.13
2023-01-12T03:40:29.984Z,75.56
2023-01-12T03:43:35.601Z,75.36
2023-01-12T03:46:44.498Z,74.96
2023-01-12T03:49:54.306Z,74.72
2023-01-12T03:52:59.911Z,74.82
2023-01-12T03:56:12.375Z,74.87
2023-01-12T03:59:16.873Z,74.58
2023-01-12T04:02:19.448Z,74.81
2023-01-12T04:05:23.753Z,74.68
2023-01-12T04:08:26.450Z,74.89
2023-01-12T04:11:46.673Z,75.10
2023-01-12T04:14:50.121Z,75.74
2023-01-12T04:17:52.875Z,75.25
2023-01-12T04:20:57.009Z,74.99
2023-01-12T04:23:58.693Z,74.85
2023-01-12T04:27:01.405Z,74.51
2023-01-12T04:30:04.453Z,74.97
2023-01-12T04:33:09.261Z,75.00
2023-01-12T04:36:13.639Z,74.93
2023-01-12T04:39:16.286Z,74.75
2023-01-12T04:42:36.510Z,74.93
2023-01-12T04:45:41.553Z,74.77
2023-01-12T04:48:45.578Z,74.66
2023-01-12T04:51:49.647Z,74.13
2023-01-12T04:54:52.283Z,74.26
2023-01-12T04:57:54.972Z,74.88
2023-01-12T05:00:58.057Z,75.34
2023-01-12T05:04:01.351Z,74.37
2023-01-12T05:07:05.611Z,73.92
2023-01-12T05:10:23.575Z,73.74
2023-01-12T05:13:30.388Z,73.68
2023-01-12T05:16:33.304Z,73.44
2023-01-12T05:19:36.410Z,73.67
2023-01-12T05:22:40.379Z,73.28
2023-01-12T05:25:43.227Z,73.04
2023-01-12T05:28:48.792Z,73.83
2023-01-12T05:31:51.447Z,73.43
2023-01-12T05:34:54.119Z,73.25
2023-01-12T05:37:58.434Z,73.07
2023-01-12T05:41:01.678Z,73.06
2023-01-12T05:44:03.539Z,73.02
2023-01-12T05:47:06.233Z,73.37
2023-01-12T05:50:10.058Z,73.26
2023-01-12T05:53:14.253Z,73.46
2023-01-12T05:56:19.056Z,73.57
2023-01-12T05:59:21.855Z,73.89
2023-01-12T06:02:24.486Z,73.94
2023-01-12T06:05:27.091Z,74.07
2023-01-12T06:08:31.175Z,74.19
2023-01-12T06:11:51.659Z,74.18
2023-01-12T06:14:54.278Z,74.08
2023-01-12T06:17:57.742Z,74.83
2023-01-12T06:21:00.750Z,74.99
2023-01-12T06:24:05.209Z,74.97
2023-01-12T06:27:08.257Z,74.68
2023-01-12T06:30:12.293Z,74.89
2023-01-12T06:33:14.935Z,74.77
2023-01-12T06:36:17.616Z,74.49
2023-01-12T06:39:21.659Z,74.52
2023-01-12T06:42:30.354Z,74.68
2023-01-12T06:45:33.039Z,74.67
2023-01-12T06:48:39.146Z,74.81
2023-01-12T06:51:42.146Z,74.49
2023-01-12T06:54:46.152Z,74.92
2023-01-12T06:57:48.770Z,75.27
2023-01-12T07:00:51.573Z,75.04
2023-01-12T07:03:54.342Z,75.54
2023-01-12T07:06:57.583Z,74.44
2023-01-12T07:10:01.603Z,74.29
2023-01-12T07:13:04.347Z,73.90
2023-01-12T07:16:08.546Z,73.93
2023-01-12T07:19:11.205Z,74.56
2023-01-12T07:22:13.907Z,73.96
2023-01-12T07:25:18.129Z,74.50
2023-01-12T07:28:20.843Z,74.18
2023-01-12T07:31:23.679Z,73.81
2023-01-12T07:34:26.454Z,73.33
2023-01-12T07:37:29.098Z,74.18
2023-01-12T07:40:33.306Z,73.92
2023-01-12T07:43:35.960Z,73.79
2023-01-12T07:46:38.677Z,73.91
2023-01-12T07:49:41.403Z,73.86
2023-01-12T07:52:44.037Z,74.00
2023-01-12T07:55:48.069Z,73.82
2023-01-12T07:58:51.182Z,73.64
2023-01-12T08:01:54.397Z,73.71
2023-01-12T08:04:57.510Z,73.53
2023-01-12T08:08:02.035Z,73.20
2023-01-12T08:11:09.233Z,72.62
2023-01-12T08:14:23.896Z,72.87
2023-01-12T08:17:27.000Z,73.05
2023-01-12T08:20:33.220Z,72.77
2023-01-12T08:23:41.817Z,72.88
2023-01-12T08:26:49.170Z,72.50
2023-01-12T08:29:55.706Z,72.35
2023-01-12T08:33:01.384Z,72.31
2023-01-12T08:36:04.558Z,72.29
2023-01-12T08:39:07.503Z,72.50
2023-01-12T08:42:11.529Z,72.34
2023-01-12T08:45:14.165Z,72.42
2023-01-12T08:48:18.001Z,72.22
2023-01-12T08:51:21.142Z,72.68
2023-01-12T08:54:24.184Z,72.16
2023-01-12T08:57:28.515Z,72.54
2023-01-12T09:00:31.251Z,72.56
2023-01-12T09:03:33.907Z,72.47
2023-01-12T09:06:38.062Z,72.29
2023-01-12T09:09:40.773Z,72.39
2023-01-12T09:12:45.766Z,72.51
2023-01-12T09:16:05.972Z,72.35
2023-01-12T09:19:11.837Z,73.17
2023-01-12T09:22:14.969Z,72.84
2023-01-12T09:25:17.999Z,72.99
2023-01-12T09:28:21.948Z,72.41
2023-01-12T09:31:24.690Z,72.81
2023-01-12T09:34:27.505Z,72.37
2023-01-12T09:37:30.189Z,72.84
2023-01-12T09:40:33.142Z,72.63
2023-01-12T09:43:55.793Z,73.06
2023-01-12T09:46:59.571Z,72.98
2023-01-12T09:50:09.737Z,72.45
2023-01-12T09:53:19.677Z,72.62
2023-01-12T09:56:29.971Z,72.52
2023-01-12T09:59:45.580Z,72.77
2023-01-12T10:02:53.074Z,72.44
2023-01-12T10:05:58.216Z,72.73
2023-01-12T10:09:02.846Z,72.15
2023-01-12T10:12:16.442Z,71.66
2023-01-12T10:15:30.831Z,72.01
2023-01-12T10:18:39.802Z,70.68
2023-01-12T10:21:43.055Z,70.68
2023-01-12T10:24:47.217Z,70.62
2023-01-12T10:27:52.186Z,70.52
2023-01-12T10:30:57.264Z,70.34
2023-01-12T10:34:04.886Z,70.19
2023-01-12T10:37:10.672Z,70.10
2023-01-12T10:40:23.878Z,69.44
2023-01-12T10:43:32.302Z,69.66
2023-01-12T10:46:36.784Z,69.45
2023-01-12T10:49:39.607Z,69.62
2023-01-12T10:52:42.398Z,69.27
2023-01-12T10:55:47.465Z,69.16
2023-01-12T10:58:55.834Z,69.15
2023-01-12T11:02:15.624Z,68.37
2023-01-12T11:05:35.420Z,68.66
2023-01-12T11:08:38.178Z,68.93
2023-01-12T11:11:41.162Z,68.32
2023-01-12T11:14:45.097Z,68.39
2023-01-12T11:18:01.030Z,68.37
2023-01-12T11:21:08.874Z,68.42
2023-01-12T11:24:18.074Z,68.58
2023-01-12T11:27:30.075Z,68.36
2023-01-12T11:30:37.960Z,69.25
2023-01-12T11:33:45.573Z,68.93
2023-01-12T11:36:51.887Z,68.17
2023-01-12T11:40:02.918Z,68.18
2023-01-12T11:43:39.166Z,67.55
2023-01-12T11:46:46.467Z,67.19
2023-01-12T11:49:56.986Z,65.54
2023-01-12T11:52:59.735Z,62.04
2023-01-12T11:56:14.925Z,60.98
2023-01-12T11:59:23.819Z,58.88
2023-01-12T12:02:34.870Z,58.21
2023-01-12T12:05:48.268Z,58.45
2023-01-12T12:09:07.746Z,60.78
2023-01-12T12:12:17.929Z,61.78
2023-01-12T12:15:30.258Z,63.64
2023-01-12T12:18:45.696Z,63.43
2023-01-12T12:21:51.814Z,63.33
2023-01-12T12:25:08.587Z,62.22
2023-01-12T12:28:34.888Z,63.11
2023-01-12T12:32:01.934Z,63.80
2023-01-12T12:35:22.172Z,64.49
2023-01-12T12:38:35.638Z,64.71
2023-01-12T12:41:58.845Z,65.16
2023-01-12T12:45:20.528Z,65.72
2023-01-12T12:48:32.555Z,65.67
2023-01-12T12:51:36.855Z,65.51
2023-01-12T12:54:41.643Z,66.55
2023-01-12T12:58:01.575Z,66.73
2023-01-12T13:01:34.132Z,66.67
2023-01-12T13:05:05.469Z,67.00
2023-01-12T13:08:19.399Z,66.88
2023-01-12T13:11:53.735Z,67.33
2023-01-12T13:15:37.748Z,68.36
2023-01-12T13:19:04.182Z,67.56
2023-01-12T13:22:28.555Z,67.55
2023-01-12T13:25:56.327Z,68.45
2023-01-12T13:29:28.950Z,68.94
2023-01-12T13:33:01.520Z,68.65
2023-01-12T13:36:10.128Z,68.57
2023-01-12T13:39:16.091Z,69.54
2023-01-12T13:42:39.834Z,68.73
2023-01-12T13:45:48.170Z,68.82
2023-01-12T13:48:54.523Z,69.40
2023-01-12T13:52:05.091Z,68.88
2023-01-12T13:55:20.662Z,69.67
2023-01-12T13:58:23.600Z,69.50
2023-01-12T14:01:28.924Z,69.76
2023-01-12T14:04:54.409Z,69.95
2023-01-12T14:08:10.101Z,69.96
2023-01-12T14:11:39.513Z,70.41
2023-01-12T14:15:14.948Z,70.54
2023-01-12T14:18:18.863Z,70.36
2023-01-12T14:21:25.760Z,70.99
2023-01-12T14:24:28.401Z,71.18
2023-01-12T14:27:31.006Z,70.83
2023-01-12T14:30:34.848Z,71.50
2023-01-12T14:33:40.951Z,71.46
2023-01-12T14:36:47.139Z,71.49
2023-01-12T14:39:52.074Z,71.40
2023-01-12T14:43:12.419Z,71.64
2023-01-12T14:46:26.735Z,71.71
2023-01-12T14:49:31.387Z,72.22
2023-01-12T14:52:35.640Z,72.12
2023-01-12T14:55:40.578Z,71.62
2023-01-12T14:58:44.442Z,71.61
2023-01-12T15:01:52.714Z,72.10
2023-01-12T15:04:58.942Z,71.94
2023-01-12T15:08:05.066Z,72.10
2023-01-12T15:11:10.159Z,71.51
2023-01-12T15:14:24.846Z,71.96
2023-01-12T15:17:44.954Z,71.11
2023-01-12T15:21:05.415Z,70.93
2023-01-12T15:24:39.365Z,71.61
2023-01-12T15:27:42.067Z,71.31
2023-01-12T15:30:44.780Z,71.50
2023-01-12T15:33:47.577Z,72.41
2023-01-12T15:36:50.626Z,71.30
2023-01-12T15:39:56.573Z,72.05
2023-01-12T15:42:59.848Z,71.69
2023-01-12T15:46:02.578Z,72.11
2023-01-12T15:49:05.736Z,71.93
2023-01-12T15:52:13.709Z,72.15
2023-01-12T15:55:19.888Z,72.11
2023-01-12T15:58:23.841Z,72.51
2023-01-12T16:01:33.930Z,72.52
2023-01-12T16:04:42.858Z,72.95
2023-01-12T16:07:48.585Z,73.31
2023-01-12T16:11:06.933Z,73.37
2023-01-12T16:14:09.996Z,73.79
2023-01-12T16:17:12.760Z,73.51
2023-01-12T16:20:17.494Z,73.77
2023-01-12T16:23:20.173Z,74.47
2023-01-12T16:26:24.980Z,74.67
2023-01-12T16:29:27.770Z,73.89
2023-01-12T16:32:30.584Z,74.78
2023-01-12T16:35:34.169Z,74.38
2023-01-12T16:38:37.461Z,74.81
2023-01-12T16:41:41.632Z,75.08
2023-01-12T16:44:44.350Z,74.87
2023-01-12T16:47:47.421Z,74.60
2023-01-12T16:50:50.358Z,75.15
2023-01-12T16:53:55.072Z,74.98
2023-01-12T16:56:59.285Z,74.89
2023-01-12T17:00:01.943Z,74.67
2023-01-12T17:03:07.726Z,75.23
2023-01-12T17:06:11.077Z,74.76
2023-01-12T17:09:14.500Z,74.63
2023-01-12T17:12:19.005Z,74.33
2023-01-12T17:15:21.961Z,74.51
2023-01-12T17:18:24.809Z,74.26
2023-01-12T17:21:27.665Z,74.66
2023-01-12T17:24:31.731Z,74.42
2023-01-12T17:27:36.143Z,74.08
2023-01-12T17:30:40.513Z,73.80
2023-01-12T17:33:43.388Z,73.83
2023-01-12T17:36:46.509Z,73.39
2023-01-12T17:39:51.084Z,73.43
2023-01-12T17:43:03.521Z,73.27
2023-01-12T17:46:08.677Z,73.29
2023-01-12T17:49:13.284Z,73.50
2023-01-12T17:52:16.172Z,73.66
2023-01-12T17:55:18.859Z,73.17
2023-01-12T17:58:22.930Z,73.16
2023-01-12T18:01:29.301Z,72.92
2023-01-12T18:04:32.456Z,72.67
2023-01-12T18:07:35.566Z,72.82
2023-01-12T18:10:38.658Z,72.86
2023-01-12T18:13:43.157Z,73.24
2023-01-12T18:16:46.372Z,72.38
2023-01-12T18:19:49.105Z,72.22
2023-01-12T18:22:54.680Z,72.19
2023-01-12T18:25:57.472Z,72.20
2023-01-12T18:29:03.005Z,71.70
2023-01-12T18:32:06.418Z,71.66
2023-01-12T18:35:10.145Z,71.08
2023-01-12T18:38:12.866Z,71.41
2023-01-12T18:41:33.081Z,70.86
2023-01-12T18:44:38.090Z,70.96
2023-01-12T18:47:58.463Z,71.04
2023-01-12T18:51:18.547Z,70.89
2023-01-12T18:54:21.190Z,70.89
2023-01-12T18:57:26.808Z,71.07
2023-01-12T19:00:30.848Z,71.34
2023-01-12T19:03:34.509Z,70.98
2023-01-12T19:06:43.919Z,70.54
2023-01-12T19:09:46.650Z,70.62
2023-01-12T19:12:49.364Z,70.62
2023-01-12T19:16:10.898Z,70.65
2023-01-12T19:19:13.659Z,70.89
2023-01-12T19:22:34.073Z,70.76
2023-01-12T19:26:09.100Z,70.26
2023-01-12T19:29:11.810Z,70.38
2023-01-12T19:32:16.026Z,70.11
2023-01-12T19:35:18.851Z,70.26
2023-01-12T19:38:21.829Z,70.79
2023-01-12T19:41:38.442Z,70.35
2023-01-12T19:44:41.065Z,69.84
2023-01-12T19:47:45.352Z,70.23
2023-01-12T19:50:48.497Z,70.04
2023-01-12T19:53:51.215Z,69.93
2023-01-12T19:56:54.090Z,70.66
2023-01-12T19:59:56.912Z,69.45
2023-01-12T20:03:01.020Z,69.62
2023-01-12T20:06:06.753Z,69.46
2023-01-12T20:09:09.616Z,69.24
2023-01-12T20:12:12.804Z,69.01
2023-01-12T20:15:15.595Z,68.93
2023-01-12T20:18:19.797Z,69.50
2023-01-12T20:21:22.611Z,68.67
2023-01-12T20:24:25.925Z,68.75
2023-01-12T20:27:28.696Z,68.64
2023-01-12T20:30:37.890Z,68.74
2023-01-12T20:33:42.919Z,68.69
2023-01-12T20:36:47.729Z,68.91
2023-01-12T20:39:53.171Z,68.48
2023-01-12T20:42:55.929Z,68.20
2023-01-12T20:45:58.913Z,67.97
2023-01-12T20:49:03.307Z,68.07
2023-01-12T20:52:06.004Z,68.45
2023-01-12T20:55:09.972Z,68.75
2023-01-12T20:58:12.951Z,68.24
2023-01-12T21:01:16.819Z,68.71
2023-01-12T21:04:20.983Z,68.57
2023-01-12T21:07:23.775Z,68.29
2023-01-12T21:10:26.454Z,68.08
2023-01-12T21:13:29.341Z,68.12
2023-01-12T21:16:33.704Z,68.80
2023-01-12T21:19:38.240Z,68.73
2023-01-12T21:22:42.665Z,68.46
2023-01-12T21:25:45.791Z,68.60
2023-01-12T21:28:48.643Z,69.03
2023-01-12T21:31:54.573Z,68.46
2023-01-12T21:34:58.820Z,68.96
2023-01-12T21:38:01.904Z,68.70
2023-01-12T21:41:06.150Z,69.12
2023-01-12T21:44:08.937Z,68.25
2023-01-12T21:47:11.710Z,68.23
2023-01-12T21:50:16.307Z,68.48
2023-01-12T21:54:32.850Z,68.75
2023-01-12T22:05:31.111Z,69.06
2023-01-12T22:09:03.391Z,68.65
2023-01-12T22:15:49.880Z,68.57
2023-01-12T22:19:04.344Z,68.67
2023-01-12T22:22:15.834Z,68.76
2023-01-12T22:25:24.857Z,68.07
2023-01-12T22:28:45.466Z,68.06
2023-01-12T22:32:09.357Z,68.33
2023-01-12T22:35:31.053Z,67.74
2023-01-12T22:39:14.446Z,68.42
2023-01-12T22:42:22.802Z,67.89
2023-01-12T22:45:42.693Z,68.04
2023-01-12T22:48:53.252Z,68.02
2023-01-12T22:52:00.746Z,67.81
2023-01-12T22:55:09.904Z,68.78
2023-01-12T22:58:16.365Z,68.68
2023-01-12T23:01:24.060Z,68.81
2023-01-12T23:04:40.525Z,68.33
2023-01-12T23:08:17.758Z,68.23
2023-01-12T23:23:58.386Z,67.85
2023-01-12T23:27:01.188Z,68.29
2023-01-12T23:30:04.148Z,68.24
2023-01-12T23:33:11.977Z,68.30
2023-01-12T23:36:16.239Z,69.30
2023-01-12T23:39:18.960Z,68.88
2023-01-12T23:42:22.230Z,68.93
2023-01-12T23:45:24.982Z,69.79
2023-01-12T23:48:29.560Z,70.18
2023-01-12T23:51:32.729Z,69.71
2023-01-12T23:54:36.682Z,70.23
2023-01-12T23:57:39.359Z,70.15
